sensor_id;sensor_type;location;lat;lon;timestamp;temperature;humidity
6379;DHT22;3222;48.858;10.128;2023-07-02T00:01:41;18.80;99.90
6379;DHT22;3222;48.858;10.128;2023-07-02T00:04:07;18.80;99.90
6379;DHT22;3222;48.858;10.128;2023-07-02T00:06:39;18.80;99.90
6379;DHT22;3222;48.858;10.128;2023-07-02T00:09:06;18.80;99.90
6379;DHT22;3222;48.858;10.128;2023-07-02T00:11:32;18.80;99.90
6379;DHT22;3222;48.858;10.128;2023-07-02T00:13:58;18.70;99.90
6379;DHT22;3222;48.858;10.128;2023-07-02T00:16:24;18.70;99.90
6379;DHT22;3222;48.858;10.128;2023-07-02T00:18:50;18.60;99.90
6379;DHT22;3222;48.858;10.128;2023-07-02T00:21:21;18.60;99.90
6379;DHT22;3222;48.858;10.128;2023-07-02T00:23:47;18.60;99.90
6379;DHT22;3222;48.858;10.128;2023-07-02T00:26:13;18.60;99.90
6379;DHT22;3222;48.858;10.128;2023-07-02T00:28:39;18.60;99.90
6379;DHT22;3222;48.858;10.128;2023-07-02T00:31:06;18.50;99.90
6379;DHT22;3222;48.858;10.128;2023-07-02T00:33:33;18.60;99.90
6379;DHT22;3222;48.858;10.128;2023-07-02T00:36:00;18.60;99.90
6379;DHT22;3222;48.858;10.128;2023-07-02T00:38:26;18.50;99.90
6379;DHT22;3222;48.858;10.128;2023-07-02T00:40:52;18.50;99.90
6379;DHT22;3222;48.858;10.128;2023-07-02T00:43:18;18.50;99.90
6379;DHT22;3222;48.858;10.128;2023-07-02T00:45:44;18.50;99.90
6379;DHT22;3222;48.858;10.128;2023-07-02T00:48:11;18.40;99.90
6379;DHT22;3222;48.858;10.128;2023-07-02T00:50:37;18.30;99.90
6379;DHT22;3222;48.858;10.128;2023-07-02T00:53:03;18.30;99.90
6379;DHT22;3222;48.858;10.128;2023-07-02T00:55:28;18.30;99.90
6379;DHT22;3222;48.858;10.128;2023-07-02T00:57:54;18.20;99.90
6379;DHT22;3222;48.858;10.128;2023-07-02T01:00:22;18.30;99.90
6379;DHT22;3222;48.858;10.128;2023-07-02T01:02:55;18.20;99.90
6379;DHT22;3222;48.858;10.128;2023-07-02T01:05:28;18.10;99.90
6379;DHT22;3222;48.858;10.128;2023-07-02T01:08:07;18.20;99.90
6379;DHT22;3222;48.858;10.128;2023-07-02T01:10:33;18.20;99.90
6379;DHT22;3222;48.858;10.128;2023-07-02T01:13:04;18.10;99.90
6379;DHT22;3222;48.858;10.128;2023-07-02T01:15:32;18.20;99.90
6379;DHT22;3222;48.858;10.128;2023-07-02T01:17:58;18.10;99.90
6379;DHT22;3222;48.858;10.128;2023-07-02T01:20:25;18.10;99.90
6379;DHT22;3222;48.858;10.128;2023-07-02T01:22:53;18.10;99.90
6379;DHT22;3222;48.858;10.128;2023-07-02T01:25:19;18.10;99.90
6379;DHT22;3222;48.858;10.128;2023-07-02T01:27:50;18.10;99.90
6379;DHT22;3222;48.858;10.128;2023-07-02T01:30:17;18.10;99.90
6379;DHT22;3222;48.858;10.128;2023-07-02T01:32:43;18.10;99.90
6379;DHT22;3222;48.858;10.128;2023-07-02T01:35:10;18.00;99.90
6379;DHT22;3222;48.858;10.128;2023-07-02T01:37:36;18.00;99.90
6379;DHT22;3222;48.858;10.128;2023-07-02T01:40:03;17.90;99.90
6379;DHT22;3222;48.858;10.128;2023-07-02T01:42:32;18.00;99.90
6379;DHT22;3222;48.858;10.128;2023-07-02T01:44:58;18.00;99.90
6379;DHT22;3222;48.858;10.128;2023-07-02T01:47:24;17.90;99.90
6379;DHT22;3222;48.858;10.128;2023-07-02T01:49:50;18.00;99.90
6379;DHT22;3222;48.858;10.128;2023-07-02T01:52:16;18.00;99.90
6379;DHT22;3222;48.858;10.128;2023-07-02T01:54:43;17.90;99.90
6379;DHT22;3222;48.858;10.128;2023-07-02T01:57:09;17.80;99.90
6379;DHT22;3222;48.858;10.128;2023-07-02T01:59:35;17.90;99.90
6379;DHT22;3222;48.858;10.128;2023-07-02T02:02:01;17.80;99.90
6379;DHT22;3222;48.858;10.128;2023-07-02T02:04:27;17.80;99.90
6379;DHT22;3222;48.858;10.128;2023-07-02T02:06:53;17.80;99.90
6379;DHT22;3222;48.858;10.128;2023-07-02T02:09:19;17.80;99.90
6379;DHT22;3222;48.858;10.128;2023-07-02T02:11:50;17.70;99.90
6379;DHT22;3222;48.858;10.128;2023-07-02T02:14:16;17.70;99.90
6379;DHT22;3222;48.858;10.128;2023-07-02T02:16:43;17.70;99.90
6379;DHT22;3222;48.858;10.128;2023-07-02T02:19:12;17.70;99.90
6379;DHT22;3222;48.858;10.128;2023-07-02T02:21:38;17.60;99.90
6379;DHT22;3222;48.858;10.128;2023-07-02T02:24:05;17.50;99.90
6379;DHT22;3222;48.858;10.128;2023-07-02T02:26:32;17.50;99.90
6379;DHT22;3222;48.858;10.128;2023-07-02T02:28:58;17.60;99.90
6379;DHT22;3222;48.858;10.128;2023-07-02T02:31:24;17.60;99.90
6379;DHT22;3222;48.858;10.128;2023-07-02T02:33:50;17.70;99.90
6379;DHT22;3222;48.858;10.128;2023-07-02T02:36:17;17.70;99.90
6379;DHT22;3222;48.858;10.128;2023-07-02T02:38:43;17.70;99.90
6379;DHT22;3222;48.858;10.128;2023-07-02T02:41:08;17.50;99.90
6379;DHT22;3222;48.858;10.128;2023-07-02T02:43:41;17.50;99.90
6379;DHT22;3222;48.858;10.128;2023-07-02T02:46:09;17.40;99.90
6379;DHT22;3222;48.858;10.128;2023-07-02T02:48:35;17.40;99.90
6379;DHT22;3222;48.858;10.128;2023-07-02T02:51:01;17.50;99.90
6379;DHT22;3222;48.858;10.128;2023-07-02T02:53:26;17.40;99.90
6379;DHT22;3222;48.858;10.128;2023-07-02T02:55:53;17.40;99.90
6379;DHT22;3222;48.858;10.128;2023-07-02T02:58:19;17.40;99.90
6379;DHT22;3222;48.858;10.128;2023-07-02T03:00:44;17.40;99.90
6379;DHT22;3222;48.858;10.128;2023-07-02T03:03:14;17.40;99.90
6379;DHT22;3222;48.858;10.128;2023-07-02T03:05:40;17.50;99.90
6379;DHT22;3222;48.858;10.128;2023-07-02T03:08:06;17.30;99.90
6379;DHT22;3222;48.858;10.128;2023-07-02T03:10:32;17.50;99.90
6379;DHT22;3222;48.858;10.128;2023-07-02T03:12:58;17.50;99.90
6379;DHT22;3222;48.858;10.128;2023-07-02T03:15:25;17.50;99.90
6379;DHT22;3222;48.858;10.128;2023-07-02T03:17:51;17.40;99.90
6379;DHT22;3222;48.858;10.128;2023-07-02T03:20:18;17.40;99.90
6379;DHT22;3222;48.858;10.128;2023-07-02T03:22:43;17.50;99.90
6379;DHT22;3222;48.858;10.128;2023-07-02T03:25:09;17.50;99.90
6379;DHT22;3222;48.858;10.128;2023-07-02T03:27:35;17.40;99.90
6379;DHT22;3222;48.858;10.128;2023-07-02T03:30:01;17.30;99.90
6379;DHT22;3222;48.858;10.128;2023-07-02T03:32:26;17.30;99.90
6379;DHT22;3222;48.858;10.128;2023-07-02T03:34:52;17.40;99.90
6379;DHT22;3222;48.858;10.128;2023-07-02T03:37:18;17.40;99.90
6379;DHT22;3222;48.858;10.128;2023-07-02T03:39:44;17.40;99.90
6379;DHT22;3222;48.858;10.128;2023-07-02T03:42:10;17.30;99.90
6379;DHT22;3222;48.858;10.128;2023-07-02T03:44:35;17.30;99.90
6379;DHT22;3222;48.858;10.128;2023-07-02T03:47:01;17.40;99.90
6379;DHT22;3222;48.858;10.128;2023-07-02T03:49:27;17.30;99.90
6379;DHT22;3222;48.858;10.128;2023-07-02T03:51:55;17.30;99.90
6379;DHT22;3222;48.858;10.128;2023-07-02T03:54:22;17.40;99.90
6379;DHT22;3222;48.858;10.128;2023-07-02T03:56:48;17.40;99.90
6379;DHT22;3222;48.858;10.128;2023-07-02T03:59:14;17.30;99.90
6379;DHT22;3222;48.858;10.128;2023-07-02T04:01:39;17.30;99.90
6379;DHT22;3222;48.858;10.128;2023-07-02T04:04:05;17.30;99.90
6379;DHT22;3222;48.858;10.128;2023-07-02T04:06:31;17.30;99.90
6379;DHT22;3222;48.858;10.128;2023-07-02T04:08:58;17.20;99.90
6379;DHT22;3222;48.858;10.128;2023-07-02T04:11:23;17.30;99.90
6379;DHT22;3222;48.858;10.128;2023-07-02T04:13:49;17.30;99.90
6379;DHT22;3222;48.858;10.128;2023-07-02T04:16:15;17.30;99.90
6379;DHT22;3222;48.858;10.128;2023-07-02T04:18:40;17.30;99.90
6379;DHT22;3222;48.858;10.128;2023-07-02T04:21:06;17.30;99.90
6379;DHT22;3222;48.858;10.128;2023-07-02T04:23:32;17.40;99.90
6379;DHT22;3222;48.858;10.128;2023-07-02T04:25:58;17.40;99.90
6379;DHT22;3222;48.858;10.128;2023-07-02T04:28:24;17.20;99.90
6379;DHT22;3222;48.858;10.128;2023-07-02T04:30:50;17.30;99.90
6379;DHT22;3222;48.858;10.128;2023-07-02T04:33:18;17.30;99.90
6379;DHT22;3222;48.858;10.128;2023-07-02T04:35:44;17.30;99.90
6379;DHT22;3222;48.858;10.128;2023-07-02T04:38:11;17.30;99.90
6379;DHT22;3222;48.858;10.128;2023-07-02T04:40:37;17.30;99.90
6379;DHT22;3222;48.858;10.128;2023-07-02T04:43:03;17.40;99.90
6379;DHT22;3222;48.858;10.128;2023-07-02T04:45:30;17.40;99.90
6379;DHT22;3222;48.858;10.128;2023-07-02T04:48:03;17.30;99.90
6379;DHT22;3222;48.858;10.128;2023-07-02T04:50:29;17.30;99.90
6379;DHT22;3222;48.858;10.128;2023-07-02T04:52:55;17.30;99.90
6379;DHT22;3222;48.858;10.128;2023-07-02T04:55:21;17.30;99.90
6379;DHT22;3222;48.858;10.128;2023-07-02T04:57:47;17.30;99.90
6379;DHT22;3222;48.858;10.128;2023-07-02T05:00:13;17.20;99.90
6379;DHT22;3222;48.858;10.128;2023-07-02T05:02:39;17.20;99.90
6379;DHT22;3222;48.858;10.128;2023-07-02T05:05:06;17.20;99.90
6379;DHT22;3222;48.858;10.128;2023-07-02T05:07:32;17.10;99.90
6379;DHT22;3222;48.858;10.128;2023-07-02T05:09:58;17.00;99.90
6379;DHT22;3222;48.858;10.128;2023-07-02T05:12:24;17.00;99.90
6379;DHT22;3222;48.858;10.128;2023-07-02T05:14:50;17.00;99.90
6379;DHT22;3222;48.858;10.128;2023-07-02T05:17:15;17.00;99.90
6379;DHT22;3222;48.858;10.128;2023-07-02T05:19:41;16.90;99.90
6379;DHT22;3222;48.858;10.128;2023-07-02T05:22:08;17.00;99.90
6379;DHT22;3222;48.858;10.128;2023-07-02T05:24:34;17.00;99.90
6379;DHT22;3222;48.858;10.128;2023-07-02T05:27:00;16.90;99.90
6379;DHT22;3222;48.858;10.128;2023-07-02T05:29:27;17.00;99.90
6379;DHT22;3222;48.858;10.128;2023-07-02T05:31:53;16.90;99.90
6379;DHT22;3222;48.858;10.128;2023-07-02T05:34:19;16.90;99.90
6379;DHT22;3222;48.858;10.128;2023-07-02T05:36:45;16.90;99.90
6379;DHT22;3222;48.858;10.128;2023-07-02T05:39:10;17.00;99.90
6379;DHT22;3222;48.858;10.128;2023-07-02T05:41:36;16.90;99.90
6379;DHT22;3222;48.858;10.128;2023-07-02T05:44:02;17.00;99.90
6379;DHT22;3222;48.858;10.128;2023-07-02T05:46:27;16.90;99.90
6379;DHT22;3222;48.858;10.128;2023-07-02T05:48:53;17.00;99.90
6379;DHT22;3222;48.858;10.128;2023-07-02T05:51:26;17.00;99.90
6379;DHT22;3222;48.858;10.128;2023-07-02T05:53:52;16.90;99.90
6379;DHT22;3222;48.858;10.128;2023-07-02T05:56:18;16.90;99.90
6379;DHT22;3222;48.858;10.128;2023-07-02T05:58:45;16.90;99.90
6379;DHT22;3222;48.858;10.128;2023-07-02T06:01:12;16.90;99.90
6379;DHT22;3222;48.858;10.128;2023-07-02T06:03:38;16.90;99.90
6379;DHT22;3222;48.858;10.128;2023-07-02T06:06:03;16.80;99.90
6379;DHT22;3222;48.858;10.128;2023-07-02T06:08:29;16.80;99.90
6379;DHT22;3222;48.858;10.128;2023-07-02T06:10:55;16.80;99.90
6379;DHT22;3222;48.858;10.128;2023-07-02T06:13:20;16.80;99.90
6379;DHT22;3222;48.858;10.128;2023-07-02T06:15:46;16.70;99.90
6379;DHT22;3222;48.858;10.128;2023-07-02T06:18:13;16.70;99.90
6379;DHT22;3222;48.858;10.128;2023-07-02T06:20:38;16.70;99.90
6379;DHT22;3222;48.858;10.128;2023-07-02T06:23:05;16.80;99.90
6379;DHT22;3222;48.858;10.128;2023-07-02T06:25:30;16.90;99.90
6379;DHT22;3222;48.858;10.128;2023-07-02T06:27:56;16.80;99.90
6379;DHT22;3222;48.858;10.128;2023-07-02T06:30:26;16.90;99.90
6379;DHT22;3222;48.858;10.128;2023-07-02T06:32:54;16.90;99.90
6379;DHT22;3222;48.858;10.128;2023-07-02T06:35:20;16.80;99.90
6379;DHT22;3222;48.858;10.128;2023-07-02T06:37:46;16.80;99.90
6379;DHT22;3222;48.858;10.128;2023-07-02T06:40:12;16.80;99.90
6379;DHT22;3222;48.858;10.128;2023-07-02T06:42:38;16.80;99.90
6379;DHT22;3222;48.858;10.128;2023-07-02T06:45:04;16.80;99.90
6379;DHT22;3222;48.858;10.128;2023-07-02T06:47:30;16.80;99.90
6379;DHT22;3222;48.858;10.128;2023-07-02T06:49:56;16.80;99.90
6379;DHT22;3222;48.858;10.128;2023-07-02T06:52:23;16.80;99.90
6379;DHT22;3222;48.858;10.128;2023-07-02T06:54:49;16.90;99.90
6379;DHT22;3222;48.858;10.128;2023-07-02T06:57:15;16.90;99.90
6379;DHT22;3222;48.858;10.128;2023-07-02T06:59:40;16.90;99.90
6379;DHT22;3222;48.858;10.128;2023-07-02T07:02:06;16.80;99.90
6379;DHT22;3222;48.858;10.128;2023-07-02T07:04:32;16.80;99.90
6379;DHT22;3222;48.858;10.128;2023-07-02T07:07:00;16.90;99.90
6379;DHT22;3222;48.858;10.128;2023-07-02T07:09:29;16.90;99.90
6379;DHT22;3222;48.858;10.128;2023-07-02T07:11:55;17.00;99.90
6379;DHT22;3222;48.858;10.128;2023-07-02T07:14:21;17.00;99.90
6379;DHT22;3222;48.858;10.128;2023-07-02T07:16:46;17.00;99.90
6379;DHT22;3222;48.858;10.128;2023-07-02T07:19:12;16.90;99.90
6379;DHT22;3222;48.858;10.128;2023-07-02T07:21:38;17.00;99.90
6379;DHT22;3222;48.858;10.128;2023-07-02T07:24:05;17.00;99.90
6379;DHT22;3222;48.858;10.128;2023-07-02T07:26:31;17.00;99.90
6379;DHT22;3222;48.858;10.128;2023-07-02T07:28:57;17.10;99.90
6379;DHT22;3222;48.858;10.128;2023-07-02T07:31:24;17.10;99.90
6379;DHT22;3222;48.858;10.128;2023-07-02T07:33:50;17.10;99.90
6379;DHT22;3222;48.858;10.128;2023-07-02T07:36:15;17.00;99.90
6379;DHT22;3222;48.858;10.128;2023-07-02T07:38:43;17.10;99.90
6379;DHT22;3222;48.858;10.128;2023-07-02T07:41:09;17.10;99.90
6379;DHT22;3222;48.858;10.128;2023-07-02T07:43:36;17.10;99.90
6379;DHT22;3222;48.858;10.128;2023-07-02T07:46:01;17.20;99.90
6379;DHT22;3222;48.858;10.128;2023-07-02T07:48:27;17.10;99.90
6379;DHT22;3222;48.858;10.128;2023-07-02T07:50:52;17.20;99.90
6379;DHT22;3222;48.858;10.128;2023-07-02T07:53:18;17.20;99.90
6379;DHT22;3222;48.858;10.128;2023-07-02T07:55:44;17.30;99.90
6379;DHT22;3222;48.858;10.128;2023-07-02T07:58:09;17.20;99.90
6379;DHT22;3222;48.858;10.128;2023-07-02T08:00:35;17.20;99.90
6379;DHT22;3222;48.858;10.128;2023-07-02T08:03:01;17.20;99.90
6379;DHT22;3222;48.858;10.128;2023-07-02T08:05:29;17.20;99.90
6379;DHT22;3222;48.858;10.128;2023-07-02T08:07:55;17.30;99.90
6379;DHT22;3222;48.858;10.128;2023-07-02T08:10:21;17.30;99.90
6379;DHT22;3222;48.858;10.128;2023-07-02T08:12:47;17.20;99.90
6379;DHT22;3222;48.858;10.128;2023-07-02T08:15:13;17.20;99.90
6379;DHT22;3222;48.858;10.128;2023-07-02T08:17:39;17.20;99.90
6379;DHT22;3222;48.858;10.128;2023-07-02T08:20:05;17.10;99.90
6379;DHT22;3222;48.858;10.128;2023-07-02T08:22:38;17.10;99.90
6379;DHT22;3222;48.858;10.128;2023-07-02T08:25:05;17.20;99.90
6379;DHT22;3222;48.858;10.128;2023-07-02T08:27:31;17.20;99.90
6379;DHT22;3222;48.858;10.128;2023-07-02T08:29:57;17.20;99.90
6379;DHT22;3222;48.858;10.128;2023-07-02T08:32:24;17.20;99.90
6379;DHT22;3222;48.858;10.128;2023-07-02T08:34:50;17.20;99.90
6379;DHT22;3222;48.858;10.128;2023-07-02T08:37:20;17.30;99.90
6379;DHT22;3222;48.858;10.128;2023-07-02T08:39:48;17.40;99.90
6379;DHT22;3222;48.858;10.128;2023-07-02T08:42:14;17.40;99.90
6379;DHT22;3222;48.858;10.128;2023-07-02T08:44:41;17.30;99.90
6379;DHT22;3222;48.858;10.128;2023-07-02T08:47:08;17.30;99.90
6379;DHT22;3222;48.858;10.128;2023-07-02T08:49:34;17.40;99.90
6379;DHT22;3222;48.858;10.128;2023-07-02T08:51:59;17.40;99.90
6379;DHT22;3222;48.858;10.128;2023-07-02T08:54:25;17.40;99.90
6379;DHT22;3222;48.858;10.128;2023-07-02T08:56:51;17.30;99.90
6379;DHT22;3222;48.858;10.128;2023-07-02T08:59:16;17.40;99.90
6379;DHT22;3222;48.858;10.128;2023-07-02T09:01:50;17.40;99.90
6379;DHT22;3222;48.858;10.128;2023-07-02T09:04:21;17.40;99.90
6379;DHT22;3222;48.858;10.128;2023-07-02T09:06:51;17.50;99.90
6379;DHT22;3222;48.858;10.128;2023-07-02T09:09:17;17.50;99.90
6379;DHT22;3222;48.858;10.128;2023-07-02T09:11:47;17.50;99.90
6379;DHT22;3222;48.858;10.128;2023-07-02T09:14:32;17.60;99.90
6379;DHT22;3222;48.858;10.128;2023-07-02T09:17:07;17.60;99.90
6379;DHT22;3222;48.858;10.128;2023-07-02T09:19:49;17.60;99.90
6379;DHT22;3222;48.858;10.128;2023-07-02T09:22:15;17.60;99.90
6379;DHT22;3222;48.858;10.128;2023-07-02T09:24:41;17.60;99.90
6379;DHT22;3222;48.858;10.128;2023-07-02T09:27:07;17.60;99.90
6379;DHT22;3222;48.858;10.128;2023-07-02T09:29:33;17.50;99.90
6379;DHT22;3222;48.858;10.128;2023-07-02T09:32:01;17.50;99.90
6379;DHT22;3222;48.858;10.128;2023-07-02T09:34:31;17.60;99.90
6379;DHT22;3222;48.858;10.128;2023-07-02T09:36:58;17.60;99.90
6379;DHT22;3222;48.858;10.128;2023-07-02T09:39:31;17.60;99.90
6379;DHT22;3222;48.858;10.128;2023-07-02T09:41:59;17.60;99.90
6379;DHT22;3222;48.858;10.128;2023-07-02T09:47:06;17.70;99.90
6379;DHT22;3222;48.858;10.128;2023-07-02T09:49:45;17.60;99.90
6379;DHT22;3222;48.858;10.128;2023-07-02T09:52:15;17.60;99.90
6379;DHT22;3222;48.858;10.128;2023-07-02T09:54:42;17.70;99.90
6379;DHT22;3222;48.858;10.128;2023-07-02T09:57:07;17.70;99.90
6379;DHT22;3222;48.858;10.128;2023-07-02T09:59:34;17.80;99.90
6379;DHT22;3222;48.858;10.128;2023-07-02T10:01:59;17.90;99.90
6379;DHT22;3222;48.858;10.128;2023-07-02T10:04:25;17.90;99.90
6379;DHT22;3222;48.858;10.128;2023-07-02T10:06:53;17.90;99.90
6379;DHT22;3222;48.858;10.128;2023-07-02T10:09:21;18.00;99.90
6379;DHT22;3222;48.858;10.128;2023-07-02T10:11:59;18.10;99.90
6379;DHT22;3222;48.858;10.128;2023-07-02T10:14:24;18.10;99.90
6379;DHT22;3222;48.858;10.128;2023-07-02T10:16:54;18.20;99.90
6379;DHT22;3222;48.858;10.128;2023-07-02T10:19:20;18.20;99.90
6379;DHT22;3222;48.858;10.128;2023-07-02T10:21:46;18.20;99.90
6379;DHT22;3222;48.858;10.128;2023-07-02T10:24:16;18.30;99.90
6379;DHT22;3222;48.858;10.128;2023-07-02T10:26:59;18.20;99.90
6379;DHT22;3222;48.858;10.128;2023-07-02T10:29:27;18.30;99.90
6379;DHT22;3222;48.858;10.128;2023-07-02T10:31:55;18.40;99.90
6379;DHT22;3222;48.858;10.128;2023-07-02T10:34:30;18.40;99.90
6379;DHT22;3222;48.858;10.128;2023-07-02T10:36:56;18.40;99.90
6379;DHT22;3222;48.858;10.128;2023-07-02T10:39:22;18.40;99.90
6379;DHT22;3222;48.858;10.128;2023-07-02T10:41:49;18.50;99.90
6379;DHT22;3222;48.858;10.128;2023-07-02T10:44:15;18.50;99.90
6379;DHT22;3222;48.858;10.128;2023-07-02T10:46:48;18.60;99.90
6379;DHT22;3222;48.858;10.128;2023-07-02T10:49:16;18.60;99.90
6379;DHT22;3222;48.858;10.128;2023-07-02T10:51:42;18.60;99.90
6379;DHT22;3222;48.858;10.128;2023-07-02T10:54:08;18.70;99.90
6379;DHT22;3222;48.858;10.128;2023-07-02T10:56:35;18.70;99.90
6379;DHT22;3222;48.858;10.128;2023-07-02T10:59:01;18.80;99.90
6379;DHT22;3222;48.858;10.128;2023-07-02T11:01:29;18.80;99.90
6379;DHT22;3222;48.858;10.128;2023-07-02T11:03:59;18.80;99.90
6379;DHT22;3222;48.858;10.128;2023-07-02T11:06:29;18.90;99.90
6379;DHT22;3222;48.858;10.128;2023-07-02T11:08:56;19.00;99.90
6379;DHT22;3222;48.858;10.128;2023-07-02T11:11:22;19.00;99.90
6379;DHT22;3222;48.858;10.128;2023-07-02T11:13:50;19.00;99.90
6379;DHT22;3222;48.858;10.128;2023-07-02T11:16:27;19.00;99.90
6379;DHT22;3222;48.858;10.128;2023-07-02T11:19:06;19.00;99.90
6379;DHT22;3222;48.858;10.128;2023-07-02T11:21:36;19.10;99.90
6379;DHT22;3222;48.858;10.128;2023-07-02T11:24:03;19.20;99.90
6379;DHT22;3222;48.858;10.128;2023-07-02T11:26:40;19.20;99.90
6379;DHT22;3222;48.858;10.128;2023-07-02T11:29:17;19.10;99.90
6379;DHT22;3222;48.858;10.128;2023-07-02T11:31:43;19.10;99.90
6379;DHT22;3222;48.858;10.128;2023-07-02T11:34:20;19.10;99.90
6379;DHT22;3222;48.858;10.128;2023-07-02T11:36:47;19.20;99.90
6379;DHT22;3222;48.858;10.128;2023-07-02T11:39:14;19.20;99.90
6379;DHT22;3222;48.858;10.128;2023-07-02T11:41:45;19.30;99.90
6379;DHT22;3222;48.858;10.128;2023-07-02T11:44:11;19.30;99.90
6379;DHT22;3222;48.858;10.128;2023-07-02T11:46:36;19.30;99.90
6379;DHT22;3222;48.858;10.128;2023-07-02T11:49:03;19.30;99.90
6379;DHT22;3222;48.858;10.128;2023-07-02T11:51:36;19.30;99.90
6379;DHT22;3222;48.858;10.128;2023-07-02T11:54:04;19.30;99.90
6379;DHT22;3222;48.858;10.128;2023-07-02T11:56:30;19.40;99.90
6379;DHT22;3222;48.858;10.128;2023-07-02T11:58:57;19.30;99.90
6379;DHT22;3222;48.858;10.128;2023-07-02T12:01:22;19.40;99.90
6379;DHT22;3222;48.858;10.128;2023-07-02T12:03:48;19.40;99.90
6379;DHT22;3222;48.858;10.128;2023-07-02T12:06:14;19.40;99.90
6379;DHT22;3222;48.858;10.128;2023-07-02T12:08:40;19.50;99.90
6379;DHT22;3222;48.858;10.128;2023-07-02T12:11:06;19.60;99.90
6379;DHT22;3222;48.858;10.128;2023-07-02T12:13:31;19.80;99.90
6379;DHT22;3222;48.858;10.128;2023-07-02T12:15:57;19.70;99.90
6379;DHT22;3222;48.858;10.128;2023-07-02T12:18:23;19.80;99.90
6379;DHT22;3222;48.858;10.128;2023-07-02T12:20:48;19.90;99.90
6379;DHT22;3222;48.858;10.128;2023-07-02T12:23:14;19.90;99.90
6379;DHT22;3222;48.858;10.128;2023-07-02T12:25:40;19.90;99.90
6379;DHT22;3222;48.858;10.128;2023-07-02T12:28:06;20.00;99.90
6379;DHT22;3222;48.858;10.128;2023-07-02T12:30:32;20.00;99.90
6379;DHT22;3222;48.858;10.128;2023-07-02T12:32:58;20.10;99.90
6379;DHT22;3222;48.858;10.128;2023-07-02T12:35:24;20.10;99.90
6379;DHT22;3222;48.858;10.128;2023-07-02T12:37:51;20.10;99.90
6379;DHT22;3222;48.858;10.128;2023-07-02T12:40:19;20.10;99.90
6379;DHT22;3222;48.858;10.128;2023-07-02T12:42:47;20.10;99.90
6379;DHT22;3222;48.858;10.128;2023-07-02T12:45:13;20.20;99.90
6379;DHT22;3222;48.858;10.128;2023-07-02T12:47:41;20.30;99.90
6379;DHT22;3222;48.858;10.128;2023-07-02T12:50:07;20.20;99.90
6379;DHT22;3222;48.858;10.128;2023-07-02T12:52:34;20.30;99.90
6379;DHT22;3222;48.858;10.128;2023-07-02T12:55:01;20.20;99.90
6379;DHT22;3222;48.858;10.128;2023-07-02T12:57:27;20.20;99.90
6379;DHT22;3222;48.858;10.128;2023-07-02T12:59:54;20.20;99.90
6379;DHT22;3222;48.858;10.128;2023-07-02T13:02:23;20.20;99.90
6379;DHT22;3222;48.858;10.128;2023-07-02T13:04:49;20.30;99.90
6379;DHT22;3222;48.858;10.128;2023-07-02T13:07:16;20.30;99.90
6379;DHT22;3222;48.858;10.128;2023-07-02T13:09:42;20.40;99.90
6379;DHT22;3222;48.858;10.128;2023-07-02T13:12:10;20.40;99.90
6379;DHT22;3222;48.858;10.128;2023-07-02T13:14:36;20.50;99.90
6379;DHT22;3222;48.858;10.128;2023-07-02T13:17:01;20.50;99.90
6379;DHT22;3222;48.858;10.128;2023-07-02T13:19:30;20.50;99.30
6379;DHT22;3222;48.858;10.128;2023-07-02T13:21:57;20.60;99.00
6379;DHT22;3222;48.858;10.128;2023-07-02T13:24:23;20.70;99.40
6379;DHT22;3222;48.858;10.128;2023-07-02T13:26:50;20.70;99.50
6379;DHT22;3222;48.858;10.128;2023-07-02T13:29:16;20.70;99.30
6379;DHT22;3222;48.858;10.128;2023-07-02T13:31:42;20.80;98.80
6379;DHT22;3222;48.858;10.128;2023-07-02T13:34:08;20.80;98.90
6379;DHT22;3222;48.858;10.128;2023-07-02T13:36:33;20.80;98.30
6379;DHT22;3222;48.858;10.128;2023-07-02T13:38:59;20.80;98.50
6379;DHT22;3222;48.858;10.128;2023-07-02T13:41:25;20.80;98.80
6379;DHT22;3222;48.858;10.128;2023-07-02T13:43:51;20.80;98.40
6379;DHT22;3222;48.858;10.128;2023-07-02T13:46:17;20.80;99.10
6379;DHT22;3222;48.858;10.128;2023-07-02T13:48:42;20.90;99.00
6379;DHT22;3222;48.858;10.128;2023-07-02T13:51:09;20.90;98.80
6379;DHT22;3222;48.858;10.128;2023-07-02T13:53:34;20.90;98.70
6379;DHT22;3222;48.858;10.128;2023-07-02T13:56:02;21.10;98.70
6379;DHT22;3222;48.858;10.128;2023-07-02T14:01:12;21.10;99.20
6379;DHT22;3222;48.858;10.128;2023-07-02T14:03:37;21.20;98.50
6379;DHT22;3222;48.858;10.128;2023-07-02T14:06:03;21.30;98.60
6379;DHT22;3222;48.858;10.128;2023-07-02T14:08:29;21.30;98.10
6379;DHT22;3222;48.858;10.128;2023-07-02T14:10:55;21.30;98.30
6379;DHT22;3222;48.858;10.128;2023-07-02T14:13:21;21.40;98.80
6379;DHT22;3222;48.858;10.128;2023-07-02T14:15:47;21.40;98.70
6379;DHT22;3222;48.858;10.128;2023-07-02T14:18:14;21.40;98.10
6379;DHT22;3222;48.858;10.128;2023-07-02T14:20:40;21.40;97.70
6379;DHT22;3222;48.858;10.128;2023-07-02T14:23:05;21.40;98.00
6379;DHT22;3222;48.858;10.128;2023-07-02T14:25:32;21.40;97.90
6379;DHT22;3222;48.858;10.128;2023-07-02T14:27:58;21.40;98.60
6379;DHT22;3222;48.858;10.128;2023-07-02T14:30:23;21.50;98.50
6379;DHT22;3222;48.858;10.128;2023-07-02T14:32:50;21.50;98.20
6379;DHT22;3222;48.858;10.128;2023-07-02T14:35:15;21.60;97.50
6379;DHT22;3222;48.858;10.128;2023-07-02T14:37:41;21.60;98.00
6379;DHT22;3222;48.858;10.128;2023-07-02T14:40:07;21.60;97.70
6379;DHT22;3222;48.858;10.128;2023-07-02T14:42:33;21.60;98.00
6379;DHT22;3222;48.858;10.128;2023-07-02T14:44:59;21.60;97.80
6379;DHT22;3222;48.858;10.128;2023-07-02T14:47:26;21.60;97.60
6379;DHT22;3222;48.858;10.128;2023-07-02T14:49:52;21.70;97.00
6379;DHT22;3222;48.858;10.128;2023-07-02T14:52:17;21.80;97.70
6379;DHT22;3222;48.858;10.128;2023-07-02T14:54:45;21.90;96.80
6379;DHT22;3222;48.858;10.128;2023-07-02T14:57:11;21.90;96.70
6379;DHT22;3222;48.858;10.128;2023-07-02T14:59:37;21.80;96.50
6379;DHT22;3222;48.858;10.128;2023-07-02T15:02:02;21.70;96.70
6379;DHT22;3222;48.858;10.128;2023-07-02T15:04:28;21.80;97.10
6379;DHT22;3222;48.858;10.128;2023-07-02T15:06:55;21.90;96.60
6379;DHT22;3222;48.858;10.128;2023-07-02T15:09:22;22.20;96.60
6379;DHT22;3222;48.858;10.128;2023-07-02T15:11:48;22.30;96.40
6379;DHT22;3222;48.858;10.128;2023-07-02T15:14:13;22.50;96.00
6379;DHT22;3222;48.858;10.128;2023-07-02T15:16:39;22.40;96.10
6379;DHT22;3222;48.858;10.128;2023-07-02T15:19:04;22.40;95.60
6379;DHT22;3222;48.858;10.128;2023-07-02T15:21:31;22.40;96.10
6379;DHT22;3222;48.858;10.128;2023-07-02T15:23:57;22.30;95.90
6379;DHT22;3222;48.858;10.128;2023-07-02T15:26:23;22.40;95.20
6379;DHT22;3222;48.858;10.128;2023-07-02T15:28:48;22.40;95.60
6379;DHT22;3222;48.858;10.128;2023-07-02T15:31:14;22.30;95.60
6379;DHT22;3222;48.858;10.128;2023-07-02T15:33:41;22.40;95.60
6379;DHT22;3222;48.858;10.128;2023-07-02T15:36:09;22.40;95.60
6379;DHT22;3222;48.858;10.128;2023-07-02T15:38:36;22.30;95.30
6379;DHT22;3222;48.858;10.128;2023-07-02T15:41:10;22.50;95.10
6379;DHT22;3222;48.858;10.128;2023-07-02T15:43:39;22.30;94.90
6379;DHT22;3222;48.858;10.128;2023-07-02T15:46:06;22.40;95.20
6379;DHT22;3222;48.858;10.128;2023-07-02T15:48:32;22.50;94.20